METAR Data
IDs: Format: Raw Decoded Include TAF

Data at: 0611 UTC 28 Sep 2022

KBRO 280553Z AUTO 34004KT 10SM FEW050 22/19 A3009 RMK AO2 SLP186 T02220189 10283 20222 403330222 53006